^^
Grace C. Lehan Memorial Weather Station Historical Data
Daily Summary for May 1, 2021 Units:  English    Metric   Both
Daily Weekly Monthly Yearly
  High: Low: Average:
Temperature: 81.4 °F 55.7 °F 69.7 °F
Dew Point: 66.5 °F 53.2 °F 61 °F
Humidity: 93.9% 56.3% 75%
Wind Speed: 1.6mph 0mph 0.2mph
Wind Gust: 10mph - -
Wind- - SW
Pressure: 29.93 in 29.80 in -
Precipitation: 0.05 in    
 
 
Tabular Data for May 1, 2021
Time Temperature Dew Point Pressure Wind Wind Speed Wind Gust Humidity Rainfall Rate (Hourly) solar
00:00 61.5 °F 56.3 °F 29.92 in Calm     83% 0.00 in 0 W/m2
00:09 61.3 °F 56.3 °F 29.92 in Calm     83.5% 0.00 in 0 W/m2
00:14 61.3 °F 56.3 °F 29.92 in Calm     83.6% 0.00 in 0 W/m2
00:19 61.2 °F 56.3 °F 29.92 in Calm     84% 0.00 in 0 W/m2
00:24 61.1 °F 56.2 °F 29.92 in Calm     84% 0.00 in 0 W/m2
00:29 61 °F 56.1 °F 29.92 in Calm     84% 0.00 in 0 W/m2
00:34 60.9 °F 56.3 °F 29.92 in Calm     84.9% 0.00 in 0 W/m2
00:39 60.8 °F 56.3 °F 29.92 in Calm     85% 0.00 in 0 W/m2
00:44 60.7 °F 56.2 °F 29.92 in Calm     85% 0.00 in 0 W/m2
00:49 60.7 °F 56.2 °F 29.92 in Calm     85.3% 0.00 in 0 W/m2
00:54 60.5 °F 56.3 °F 29.92 in Calm     86% 0.00 in 0 W/m2
00:59 60.4 °F 56.2 °F 29.92 in Calm     86% 0.00 in 0 W/m2
01:04 60.3 °F 56.1 °F 29.92 in Calm     86% 0.00 in 0 W/m2
01:09 60.2 °F 56 °F 29.92 in Calm     86% 0.00 in 0 W/m2
01:14 60.1 °F 55.9 °F 29.92 in Calm     86% 0.00 in 0 W/m2
01:15 60 °F 55.8 °F 29.91 in Calm     86% 0.00 in 0 W/m2
01:30 59.8 °F 55.9 °F 29.92 in Calm     87% 0.00 in 0 W/m2
02:00 59.3 °F 55.8 °F 29.91 in Calm     88% 0.00 in 0 W/m2
02:30 58.8 °F 55.6 °F 29.91 in Calm     89% 0.00 in 0 W/m2
03:00 58.5 °F 55.6 °F 29.90 in Calm     90% 0.00 in 0 W/m2
03:30 58.2 °F 55.3 °F 29.90 in Calm     90% 0.00 in 0 W/m2
04:04 57.6 °F 55 °F 29.90 in Calm     91% 0.00 in 0 W/m2
04:09 57.6 °F 55 °F 29.90 in Calm     91% 0.00 in 0 W/m2
04:14 57.5 °F 54.9 °F 29.91 in Calm     91% 0.00 in 0 W/m2
04:19 57.4 °F 54.8 °F 29.91 in Calm     91% 0.00 in 0 W/m2
04:24 57.3 °F 54.7 °F 29.91 in Calm   1 mph 91% 0.00 in 0 W/m2
04:29 57.3 °F 54.7 °F 29.91 in Calm   1 mph 91% 0.00 in 0 W/m2
04:34 57.2 °F 54.6 °F 29.91 in Calm   1 mph 91% 0.00 in 0 W/m2
04:39 57.1 °F 54.5 °F 29.91 in Calm     91% 0.00 in 0 W/m2
04:44 57 °F 54.4 °F 29.91 in Calm     91% 0.00 in 0 W/m2
04:49 57 °F 54.4 °F 29.91 in Calm     91% 0.00 in 0 W/m2
04:54 56.9 °F 54.3 °F 29.91 in Calm     91% 0.00 in 0 W/m2
04:59 56.8 °F 54.2 °F 29.91 in Calm     91% 0.00 in 0 W/m2
05:04 56.7 °F 54.1 °F 29.91 in Calm     91% 0.00 in 0 W/m2
05:09 56.6 °F 54 °F 29.91 in Calm     91% 0.00 in 0 W/m2
05:14 56.5 °F 53.9 °F 29.91 in Calm     91% 0.00 in 0 W/m2
05:19 56.4 °F 53.8 °F 29.91 in Calm     91% 0.00 in 0 W/m2
05:24 56.3 °F 53.7 °F 29.91 in Calm     91% 0.00 in 0 W/m2
05:29 56.2 °F 53.6 °F 29.91 in Calm     91% 0.00 in 0 W/m2
05:34 56.1 °F 53.5 °F 29.91 in Calm     91% 0.00 in 0 W/m2
05:39 56 °F 53.4 °F 29.91 in Calm     91% 0.00 in 0 W/m2
05:44 56 °F 53.4 °F 29.92 in Calm     91% 0.00 in 0 W/m2
05:49 55.9 °F 53.3 °F 29.92 in Calm     91% 0.00 in 0 W/m2
05:54 55.8 °F 53.2 °F 29.92 in Calm     91% 0.00 in 5 W/m2
05:59 55.8 °F 53.3 °F 29.91 in Calm     91.3% 0.00 in 7 W/m2
06:04 55.7 °F 53.4 °F 29.91 in Calm     92% 0.00 in 12 W/m2
06:09 55.7 °F 53.4 °F 29.92 in Calm     92% 0.00 in 14 W/m2
06:14 55.8 °F 53.5 °F 29.92 in Calm     92% 0.00 in 18 W/m2
06:19 55.8 °F 53.5 °F 29.92 in Calm     92% 0.00 in 21 W/m2
06:24 55.9 °F 53.6 °F 29.92 in Calm     92% 0.00 in 25 W/m2
06:29 55.9 °F 53.7 °F 29.93 in Calm     92% 0.00 in 28 W/m2
06:34 56 °F 53.7 °F 29.93 in Calm     92% 0.00 in 32 W/m2
06:39 56.2 °F 53.9 °F 29.93 in Calm     92% 0.00 in 37 W/m2
06:44 56.3 °F 54.2 °F 29.93 in Calm     92.7% 0.00 in 35 W/m2
06:49 56.5 °F 54.5 °F 29.92 in Calm     93% 0.00 in 81 W/m2
06:54 56.8 °F 54.8 °F 29.92 in Calm     93% 0.00 in 88 W/m2
06:59 57.4 °F 55.7 °F 29.92 in Calm     93.9% 0.00 in 93 W/m2
07:04 57.9 °F 55.9 °F 29.92 in Calm     93% 0.00 in 95 W/m2
07:09 58.2 °F 56.2 °F 29.93 in Calm     93% 0.00 in 81 W/m2
07:14 58.5 °F 56.5 °F 29.93 in Calm     93% 0.00 in 185 W/m2
07:19 59 °F 57 °F 29.93 in Calm     93.1% 0.00 in 185 W/m2
07:24 59.5 °F 57.1 °F 29.92 in Calm     91.6% 0.00 in 139 W/m2
07:29 60 °F 57.3 °F 29.92 in Calm     90.6% 0.00 in 86 W/m2
07:34 60.3 °F 57 °F 29.92 in Calm     89% 0.00 in 156 W/m2
07:39 60.6 °F 57.3 °F 29.92 in Calm     88.8% 0.00 in 156 W/m2
07:44 60.9 °F 57.4 °F 29.92 in Calm     88.4% 0.00 in 128 W/m2
07:49 61 °F 57.2 °F 29.93 in Calm     87.2% 0.00 in 193 W/m2
07:54 61.3 °F 57.5 °F 29.93 in Calm     87% 0.00 in 265 W/m2
07:59 61.9 °F 58 °F 29.92 in Calm     87% 0.00 in 288 W/m2
08:09 63.3 °F 58.6 °F 29.92 in Calm     84.5% 0.00 in 313 W/m2
08:14 63.8 °F 58.7 °F 29.92 in Calm     83.3% 0.00 in 348 W/m2
08:19 64.5 °F 58.9 °F 29.92 in Calm     81.9% 0.00 in 367 W/m2
08:24 65.1 °F 58.7 °F 29.91 in Calm     79.8% 0.00 in 385 W/m2
08:29 65.9 °F 59.1 °F 29.91 in Calm     78.6% 0.00 in 378 W/m2
08:34 66.6 °F 59.1 °F 29.91 in Calm     76.8% 0.00 in 378 W/m2
08:39 67.3 °F 59.4 °F 29.91 in Calm     75.9% 0.00 in 408 W/m2
08:44 67.7 °F 59.9 °F 29.91 in Calm     76% 0.00 in 522 W/m2
08:49 68.4 °F 60.4 °F 29.91 in Calm     75.6% 0.00 in 522 W/m2
08:54 68.8 °F 60.1 °F 29.90 in Calm     73.7% 0.00 in 503 W/m2
08:59 69 °F 58.9 °F 29.90 in Calm     70.2% 0.00 in 281 W/m2
09:04 69 °F 59.3 °F 29.90 in Calm     71.3% 0.00 in 169 W/m2
09:09 69.1 °F 60.2 °F 29.90 in Calm     73.1% 0.00 in 476 W/m2
09:14 69.4 °F 60.2 °F 29.90 in Calm     72.5% 0.00 in 587 W/m2
09:19 69.9 °F 60.9 °F 29.90 in Calm     73% 0.00 in 524 W/m2
09:24 70.4 °F 60.9 °F 29.90 in Calm     72% 0.00 in 599 W/m2
09:29 70.8 °F 61.8 °F 29.90 in Calm     73.2% 0.00 in 656 W/m2
09:34 71.2 °F 61.8 °F 29.90 in Calm     72.3% 0.00 in 288 W/m2
09:39 71.5 °F 62 °F 29.90 in Calm     72% 0.00 in 292 W/m2
09:44 71.7 °F 63 °F 29.90 in Calm     73.9% 0.00 in 536 W/m2
09:49 72.2 °F 63.4 °F 29.90 in Calm     74% 0.00 in 664 W/m2
09:54 72.9 °F 63.8 °F 29.90 in Calm     73.2% 0.00 in 708 W/m2
09:59 73.5 °F 63.8 °F 29.90 in Calm     71.6% 0.00 in 482 W/m2
10:04 74.1 °F 64.5 °F 29.90 in Calm     72% 0.00 in 768 W/m2
10:09 74.6 °F 64.8 °F 29.90 in Calm   1 mph 71.5% 0.00 in 698 W/m2
10:14 75.2 °F 65.2 °F 29.90 in Calm   1 mph 71.2% 0.00 in 735 W/m2
10:19 75.7 °F 65.1 °F 29.90 in Calm   1 mph 69.6% 0.00 in 626 W/m2
10:24 76.2 °F 65.4 °F 29.90 in Calm   1 mph 69.2% 0.00 in 912 W/m2
10:29 76.6 °F 65.5 °F 29.90 in NNW 0.1 mph 3 mph 68.6% 0.00 in 912 W/m2
10:34 77.1 °F 66.2 °F 29.90 in NNW 0.2 mph 3 mph 68.9% 0.00 in 793 W/m2
10:39 77.7 °F 66.5 °F 29.90 in Calm   2 mph 68.5% 0.00 in 786 W/m2
10:44 78.2 °F 66.1 °F 29.90 in NW 0.4 mph 3 mph 66.4% 0.00 in 768 W/m2
10:49 78.7 °F 66.5 °F 29.89 in Calm   3 mph 66.3% 0.00 in 772 W/m2
10:54 79 °F 66.5 °F 29.89 in Calm   3 mph 65.7% 0.00 in 779 W/m2
10:59 79.4 °F 66.5 °F 29.90 in Calm   3 mph 64.7% 0.00 in 791 W/m2
11:04 79.3 °F 65.8 °F 29.90 in Calm   3 mph 63.3% 0.00 in 840 W/m2
11:09 79.4 °F 66.3 °F 29.90 in NNW 0.1 mph 3 mph 64.4% 0.00 in 840 W/m2
11:14 79.4 °F 66 °F 29.90 in West 1.2 mph 10 mph 63.7% 0.00 in 775 W/m2
11:19 79.4 °F 64.9 °F 29.90 in Calm   10 mph 61.4% 0.00 in 795 W/m2
11:24 79.5 °F 65.2 °F 29.89 in WSW 0.2 mph 10 mph 61.6% 0.00 in 926 W/m2
11:29 79.8 °F 64.8 °F 29.89 in WSW 0.3 mph 10 mph 60.2% 0.00 in 954 W/m2
11:34 80 °F 64.9 °F 29.89 in SW 0.5 mph 10 mph 59.9% 0.00 in 954 W/m2
11:39 79.7 °F 64.3 °F 29.89 in South 0.2 mph 5 mph 59.3% 0.00 in 232 W/m2
11:44 79.4 °F 64.7 °F 29.89 in South 0.2 mph 5 mph 60.8% 0.00 in 197 W/m2
11:49 78.9 °F 64.6 °F 29.89 in South 0.1 mph 5 mph 61.5% 0.00 in 287 W/m2
11:54 78.5 °F 64.7 °F 29.88 in South 0.3 mph 5 mph 62.6% 0.00 in 260 W/m2
11:59 78.6 °F 65.8 °F 29.88 in SSW 0.3 mph 5 mph 64.9% 0.00 in 599 W/m2
12:00 78.8 °F 65.2 °F 29.88 in Calm   5 mph 63% 0.00 in 431 W/m2
12:09 79 °F 64.4 °F 29.88 in SSW 0.6 mph 5 mph 61.1% 0.00 in 684 W/m2
12:14 79.1 °F 63.9 °F 29.88 in SSW 0.2 mph 5 mph 59.7% 0.00 in 684 W/m2
12:19 79.1 °F 63.8 °F 29.88 in Calm   5 mph 59.6% 0.00 in 279 W/m2
12:24 79 °F 64.4 °F 29.88 in WSW 0.8 mph 6 mph 61.1% 0.00 in 362 W/m2
12:29 78.9 °F 63.5 °F 29.88 in WSW 0.1 mph 6 mph 59.3% 0.00 in 1051 W/m2
12:34 79 °F 62.7 °F 29.88 in WSW 0.2 mph 6 mph 57.5% 0.00 in 619 W/m2
12:39 79.1 °F 63.4 °F 29.87 in WSW 0.2 mph 3 mph 58.7% 0.00 in 489 W/m2
12:44 78.8 °F 63.6 °F 29.87 in Calm   3 mph 59.6% 0.00 in 258 W/m2
12:49 78.6 °F 64.2 °F 29.87 in SW 0.3 mph 3 mph 61.4% 0.00 in 800 W/m2
12:54 78.5 °F 64 °F 29.87 in SW 0.1 mph 3 mph 61.1% 0.00 in 417 W/m2
12:59 78.5 °F 64 °F 29.87 in Calm   3 mph 61.2% 0.00 in 188 W/m2
13:04 78.3 °F 63.9 °F 29.87 in SW 0.2 mph 3 mph 61.4% 0.00 in 218 W/m2
13:09 78.1 °F 64.2 °F 29.86 in SW 0.1 mph 3 mph 62.4% 0.00 in 436 W/m2
13:14 78 °F 64.2 °F 29.86 in South 0.6 mph 3 mph 62.5% 0.00 in 436 W/m2
13:19 78.1 °F 63.9 °F 29.86 in Calm   3 mph 61.7% 0.00 in 271 W/m2
13:24 78.2 °F 64.4 °F 29.86 in SSE 0.1 mph 3 mph 62.6% 0.00 in 288 W/m2
13:29 78.5 °F 64.5 °F 29.86 in SSW 0.4 mph 4 mph 62.1% 0.00 in 287 W/m2
13:34 78.7 °F 63.3 °F 29.86 in SSW 0.6 mph 4 mph 59.4% 0.00 in 295 W/m2
13:39 78.7 °F 63.4 °F 29.86 in South 0.3 mph 4 mph 59.4% 0.00 in 1053 W/m2
13:44 79.2 °F 64.3 °F 29.86 in WSW 1.6 mph 7 mph 60.3% 0.00 in 991 W/m2
13:49 80.2 °F 64.7 °F 29.86 in SW 1.6 mph 7 mph 59.4% 0.00 in 979 W/m2
13:54 80.9 °F 64.9 °F 29.86 in SW 0.8 mph 7 mph 58.2% 0.00 in 974 W/m2
13:59 81.2 °F 64.6 °F 29.85 in Calm   7 mph 57.2% 0.00 in 974 W/m2
14:04 81.4 °F 64.8 °F 29.85 in SW 0.4 mph 7 mph 57.2% 0.00 in 592 W/m2
14:09 81.2 °F 64.4 °F 29.85 in WSW 0.5 mph 4 mph 56.7% 0.00 in 362 W/m2
14:14 80.7 °F 63.7 °F 29.85 in WSW 0.3 mph 4 mph 56.3% 0.00 in 343 W/m2
14:19 80 °F 63 °F 29.85 in SW 0.6 mph 4 mph 56.3% 0.00 in 383 W/m2
14:24 79.4 °F 63.7 °F 29.85 in SW 0.5 mph 5 mph 58.7% 0.00 in 359 W/m2
14:29 79.1 °F 63.5 °F 29.85 in SW 0.7 mph 5 mph 58.8% 0.00 in 411 W/m2
14:34 78.9 °F 63.4 °F 29.84 in SW 1.6 mph 7 mph 59.1% 0.00 in 575 W/m2
14:39 78.7 °F 64.1 °F 29.84 in WSW 0.8 mph 7 mph 60.9% 0.00 in 1039 W/m2
14:44 79 °F 64.7 °F 29.84 in WSW 1 mph 7 mph 61.6% 0.00 in 1039 W/m2
14:49 79.4 °F 64 °F 29.84 in SW 0.7 mph 7 mph 59.2% 0.00 in 271 W/m2
14:54 79.3 °F 62.9 °F 29.84 in SW 0.5 mph 7 mph 57.1% 0.00 in 271 W/m2
14:59 78.9 °F 62.6 °F 29.83 in SW 0.2 mph 7 mph 57.4% 0.00 in 267 W/m2
15:04 78.4 °F 62.7 °F 29.83 in SW 0.4 mph 7 mph 58.5% 0.00 in 258 W/m2
15:09 78 °F 62.7 °F 29.84 in SW 0.2 mph 4 mph 59.2% 0.00 in 267 W/m2
15:14 77.7 °F 62.2 °F 29.83 in SSW 1 mph 4 mph 59% 0.00 in 267 W/m2
15:19 77.4 °F 62.5 °F 29.83 in South 0.1 mph 4 mph 60.1% 0.00 in 230 W/m2
15:24 77.3 °F 63.1 °F 29.83 in Calm   4 mph 61.7% 0.00 in 671 W/m2
15:29 77.5 °F 63.8 °F 29.83 in SW 0.6 mph 6 mph 62.7% 0.00 in 671 W/m2
15:34 77.9 °F 64 °F 29.83 in SW 0.2 mph 6 mph 62.5% 0.00 in 283 W/m2
15:39 78.2 °F 64.2 °F 29.83 in SW 0.2 mph 3 mph 62.2% 0.00 in 318 W/m2
15:44 78.3 °F 63.8 °F 29.82 in SW 0.2 mph 3 mph 61.2% 0.00 in 279 W/m2
15:49 78.3 °F 63.5 °F 29.82 in SSW 0.7 mph 3 mph 60.4% 0.00 in 299 W/m2
15:54 78.2 °F 63.3 °F 29.82 in SSW 0.8 mph 5 mph 60.2% 0.00 in 279 W/m2
15:59 78 °F 63.2 °F 29.82 in South 0.3 mph 5 mph 60.4% 0.00 in 271 W/m2
16:00 78 °F 63.5 °F 29.82 in Calm   5 mph 61% 0.00 in 209 W/m2
16:09 78 °F 63 °F 29.82 in SSW 1 mph 4 mph 59.9% 0.00 in 362 W/m2
16:14 78.1 °F 62.7 °F 29.82 in SSW 0.6 mph 4 mph 59.1% 0.00 in 323 W/m2
16:19 78 °F 63 °F 29.82 in SSW 0.5 mph 4 mph 60% 0.00 in 137 W/m2
16:24 77.8 °F 62.7 °F 29.82 in SSW 0.3 mph 4 mph 59.6% 0.00 in 186 W/m2
16:29 77.6 °F 62.2 °F 29.82 in SSW 1 mph 6 mph 59% 0.00 in 186 W/m2
16:34 77.5 °F 61.9 °F 29.82 in South 0.5 mph 6 mph 58.7% 0.00 in 149 W/m2
16:39 77.2 °F 62 °F 29.82 in SSW 0.6 mph 6 mph 59.5% 0.00 in 79 W/m2
16:44 76.9 °F 62.3 °F 29.82 in SSW 0.2 mph 6 mph 60.8% 0.00 in 111 W/m2
16:49 76.7 °F 62.9 °F 29.82 in SSW 0.3 mph 6 mph 62.3% 0.00 in 114 W/m2
16:54 76.8 °F 63.1 °F 29.82 in SSW 0.3 mph 6 mph 62.8% 0.00 in 127 W/m2
16:59 76.7 °F 62.3 °F 29.82 in South 1 mph 6 mph 61.1% 0.00 in 127 W/m2
17:04 76.6 °F 62.6 °F 29.82 in South 0.2 mph 6 mph 61.9% 0.00 in 86 W/m2
17:09 76.5 °F 62.8 °F 29.82 in South 0.3 mph 3 mph 62.5% 0.00 in 111 W/m2
17:14 76.4 °F 62.9 °F 29.82 in SSW 0.6 mph 5 mph 63% 0.00 in 125 W/m2
17:19 76.2 °F 62.7 °F 29.82 in SSW 1 mph 5 mph 63% 0.00 in 116 W/m2
17:24 76.1 °F 63.1 °F 29.82 in SSW 0.4 mph 5 mph 64.1% 0.00 in 109 W/m2
17:29 76 °F 63.1 °F 29.82 in SSW 0.4 mph 5 mph 64.4% 0.00 in 62 W/m2
17:34 75.7 °F 62.6 °F 29.82 in SSW 0.4 mph 5 mph 64% 0.00 in 54 W/m2
17:39 75.4 °F 62.7 °F 29.82 in SSW 0.4 mph 5 mph 64.7% 0.00 in 58 W/m2
17:44 75.1 °F 62.3 °F 29.82 in SSW 0.9 mph 5 mph 64.3% 0.00 in 72 W/m2
17:49 74.9 °F 62.3 °F 29.82 in SSW 0.5 mph 5 mph 65% 0.00 in 72 W/m2
17:54 74.7 °F 62.1 °F 29.82 in SSW 0.7 mph 5 mph 65% 0.00 in 53 W/m2
17:59 74.4 °F 62.2 °F 29.82 in SSW 0.8 mph 5 mph 65.8% 0.00 in 46 W/m2
18:04 74.2 °F 62.1 °F 29.81 in SSW 0.1 mph 5 mph 66% 0.00 in 51 W/m2
18:09 74 °F 62.1 °F 29.81 in SSW 0.2 mph 2 mph 66.6% 0.00 in 54 W/m2
18:14 73.7 °F 62 °F 29.81 in SSW 0.7 mph 3 mph 66.6% 0.00 in 56 W/m2
18:19 73.6 °F 61.7 °F 29.81 in SSW 0.8 mph 6 mph 66.5% 0.00 in 58 W/m2
18:24 73.4 °F 61.8 °F 29.81 in SSW 0.3 mph 6 mph 67% 0.00 in 69 W/m2
18:29 73.4 °F 61.8 °F 29.81 in SSW 0.1 mph 6 mph 67% 0.00 in 69 W/m2
18:34 73.3 °F 61.8 °F 29.81 in SSW 0.4 mph 6 mph 67.3% 0.00 in 49 W/m2
18:39 73.2 °F 61.6 °F 29.81 in SSW 0.6 mph 3 mph 67% 0.00 in 42 W/m2
18:44 73.1 °F 61.5 °F 29.82 in SSW 0.1 mph 3 mph 67% 0.00 in 39 W/m2
18:49 73.1 °F 61.5 °F 29.82 in SSW 0.4 mph 4 mph 67% 0.00 in 33 W/m2
18:54 73 °F 61.4 °F 29.82 in SSW 0.2 mph 4 mph 67% 0.00 in 32 W/m2
18:59 72.9 °F 61.3 °F 29.82 in SSW 0.1 mph 4 mph 67% 0.00 in 30 W/m2
19:04 72.8 °F 61.2 °F 29.81 in Calm   4 mph 67% 0.00 in 28 W/m2
19:09 72.6 °F 61.1 °F 29.82 in Calm   2 mph 67.1% 0.00 in 16 W/m2
19:14 72.6 °F 61.2 °F 29.82 in SSW 0.3 mph 3 mph 67.5% 0.00 in 14 W/m2
19:19 72.5 °F 61.3 °F 29.82 in Calm   3 mph 68% 0.00 in 9 W/m2
19:24 72.3 °F 61.2 °F 29.82 in Calm   3 mph 68% 0.00 in 5 W/m2
19:29 72.1 °F 61.3 °F 29.82 in Calm   3 mph 68.7% 0.00 in 0 W/m2
19:34 72 °F 61.3 °F 29.82 in Calm   3 mph 69% 0.00 in 0 W/m2
19:39 71.9 °F 61.4 °F 29.82 in Calm     69.5% 0.00 in 0 W/m2
19:44 71.8 °F 61.2 °F 29.82 in SSW 0.3 mph 4 mph 69.3% 0.00 in 0 W/m2
19:49 71.7 °F 61.4 °F 29.82 in SSW 0.1 mph 4 mph 70% 0.00 in 0 W/m2
19:54 71.6 °F 61.5 °F 29.82 in Calm   4 mph 70.4% 0.00 in 0 W/m2
19:59 71.5 °F 61.6 °F 29.82 in Calm   4 mph 71% 0.00 in 0 W/m2
20:00 71.4 °F 61.5 °F 29.82 in Calm   4 mph 71% 0.00 in 0 W/m2
20:09 71.2 °F 61.1 °F 29.83 in Calm     70.4% 0.00 in 0 W/m2
20:14 71.2 °F 61 °F 29.83 in Calm     70.3% 0.00 in 0 W/m2
20:19 71.1 °F 61.8 °F 29.83 in Calm     72.4% 0.01 in 0 W/m2
20:24 70.9 °F 62.3 °F 29.83 in Calm     74.1% 0.01 in 0 W/m2
20:29 70.6 °F 62.4 °F 29.83 in Calm     75.4% 0.01 in 0 W/m2
20:34 70.2 °F 62.4 °F 29.83 in Calm     76.4% 0.01 in 0 W/m2
20:39 69.8 °F 62.2 °F 29.84 in Calm     76.8% 0.01 in 0 W/m2
20:44 69.5 °F 62 °F 29.84 in Calm     77.1% 0.01 in 0 W/m2
20:49 69.3 °F 62.3 °F 29.84 in Calm     78.3% 0.01 in 0 W/m2
20:54 69.3 °F 62.5 °F 29.84 in Calm     79% 0.01 in 0 W/m2
20:59 69.2 °F 62.4 °F 29.84 in Calm     79% 0.01 in 0 W/m2
21:04 69 °F 62.3 °F 29.84 in Calm     79% 0.01 in 0 W/m2
21:09 68.9 °F 62.2 °F 29.84 in Calm     79% 0.01 in 0 W/m2
21:14 68.9 °F 62.4 °F 29.84 in Calm     79.7% 0.01 in 0 W/m2
21:19 68.9 °F 63 °F 29.85 in Calm     81.3% 0.04 in 0 W/m2
21:24 68.9 °F 63.4 °F 29.85 in Calm     82.6% 0.05 in 0 W/m2
21:29 68.9 °F 63.6 °F 29.85 in Calm     83.4% 0.05 in 0 W/m2
21:34 68.8 °F 64 °F 29.85 in Calm     84.7% 0.05 in 0 W/m2
21:39 68.6 °F 64.2 °F 29.84 in Calm     85.7% 0.04 in 0 W/m2
21:44 68.4 °F 64 °F 29.84 in Calm     86% 0.04 in 0 W/m2
21:49 68 °F 63.8 °F 29.84 in Calm     86.3% 0.04 in 0 W/m2
21:54 67.7 °F 63.7 °F 29.84 in Calm     87% 0.04 in 0 W/m2
21:59 67.5 °F 63.5 °F 29.84 in Calm     87.1% 0.04 in 0 W/m2
22:04 67.3 °F 63.6 °F 29.84 in Calm     88% 0.04 in 0 W/m2
22:09 67.2 °F 63.5 °F 29.83 in Calm     88% 0.04 in 0 W/m2
22:14 67 °F 63.3 °F 29.83 in Calm     88% 0.04 in 0 W/m2
22:19 66.8 °F 63.3 °F 29.83 in Calm     88.5% 0.04 in 0 W/m2
22:24 66.8 °F 63.6 °F 29.83 in Calm     89.5% 0.04 in 0 W/m2
22:29 66.8 °F 63.8 °F 29.84 in Calm     90% 0.04 in 0 W/m2
22:34 66.8 °F 63.8 °F 29.84 in Calm     90% 0.04 in 0 W/m2
22:39 66.8 °F 63.9 °F 29.83 in Calm     90.4% 0.00 in 0 W/m2
22:44 66.9 °F 64.2 °F 29.83 in Calm     91% 0.00 in 0 W/m2
22:49 66.9 °F 64.2 °F 29.83 in Calm     91% 0.00 in 0 W/m2
22:54 66.9 °F 64.2 °F 29.83 in Calm     91% 0.00 in 0 W/m2
22:59 66.8 °F 64.1 °F 29.83 in Calm     91% 0.00 in 0 W/m2
23:04 66.8 °F 64.1 °F 29.82 in Calm     91% 0.00 in 0 W/m2
23:09 66.7 °F 64.1 °F 29.82 in Calm     91.4% 0.00 in 0 W/m2
23:14 66.7 °F 64.3 °F 29.82 in Calm     92% 0.00 in 0 W/m2
23:19 66.6 °F 64.2 °F 29.81 in Calm     92% 0.00 in 0 W/m2
23:24 66.5 °F 64.1 °F 29.80 in Calm     92% 0.00 in 0 W/m2
23:29 66.3 °F 63.8 °F 29.80 in Calm     91.7% 0.00 in 0 W/m2
23:34 66.2 °F 63.6 °F 29.80 in Calm     91.5% 0.00 in 0 W/m2
23:39 66.1 °F 63.7 °F 29.80 in Calm     92% 0.00 in 0 W/m2
23:44 66.1 °F 63.7 °F 29.80 in Calm     92% 0.00 in 0 W/m2
23:49 66.1 °F 63.7 °F 29.80 in Calm     92% 0.00 in 0 W/m2
23:54 66 °F 63.6 °F 29.80 in Calm     92% 0.00 in 0 W/m2
23:59 65.9 °F 63.5 °F 29.80 in Calm     92% 0.00 in 0 W/m2
Hartford County Weather
Compliments of Weather Underground - 4 mb